NKS107 KFLL-KEWR
Flight info
| Callsign | NKS107 |
|---|---|
| Flight time | N/A |
| Altitude | 37000 |
| Route | FEALX2 ETECK GRUBR Y299 SEELO GARIC Q129 AARNN QUART PHLBO4 |
| Aircraft | A321/M-SDE3FGHIRWY/LB1 |
Departure
| Time | N/A |
|---|---|
| Airport | Fort Lauderdale Hollywood International Airport (KFLL) |
Arrival
| Time | 2026-05-04 01:14 |
|---|---|
| Airport | Newark Liberty International Airport (KEWR) |
| Time | Latitude | Longitude | Altitude | Speed | Heading |
|---|---|---|---|---|---|
| 2026-05-03 23:57 | 33.20307 | -78.08317 | 37147 ft | 491 kts | 355° |
| 2026-05-03 23:57 | 33.23729 | -78.07805 | 37149 ft | 491 kts | 355° |
| 2026-05-03 23:57 | 33.30503 | -78.06793 | 37159 ft | 491 kts | 355° |
| 2026-05-03 23:58 | 33.37283 | -78.05778 | 37151 ft | 490 kts | 355° |
| 2026-05-03 23:58 | 33.44024 | -78.04765 | 37153 ft | 491 kts | 355° |
| 2026-05-03 23:59 | 33.50768 | -78.03748 | 37147 ft | 488 kts | 355° |
| 2026-05-03 23:59 | 33.57542 | -78.02726 | 37145 ft | 487 kts | 355° |
| 2026-05-04 00:00 | 33.64269 | -78.01712 | 37145 ft | 486 kts | 355° |
| 2026-05-04 00:00 | 33.70968 | -78.00700 | 37145 ft | 487 kts | 355° |
| 2026-05-04 00:01 | 33.77661 | -77.99686 | 37131 ft | 487 kts | 355° |
| 2026-05-04 00:01 | 33.84399 | -77.98665 | 37133 ft | 487 kts | 355° |
| 2026-05-04 00:02 | 33.91105 | -77.98006 | 37131 ft | 476 kts | 349° |
| 2026-05-04 00:02 | 33.97715 | -77.97772 | 37135 ft | 474 kts | 349° |
| 2026-05-04 00:03 | 34.04315 | -77.97559 | 37132 ft | 475 kts | 349° |
| 2026-05-04 00:03 | 34.10920 | -77.97333 | 37141 ft | 475 kts | 349° |
| 2026-05-04 00:04 | 34.17593 | -77.97096 | 37144 ft | 476 kts | 349° |
| 2026-05-04 00:04 | 34.24196 | -77.96855 | 37143 ft | 474 kts | 349° |
| 2026-05-04 00:05 | 34.30814 | -77.96618 | 37144 ft | 475 kts | 349° |
| 2026-05-04 00:05 | 34.37388 | -77.96378 | 37138 ft | 472 kts | 349° |
| 2026-05-04 00:06 | 34.43948 | -77.96139 | 37139 ft | 472 kts | 349° |
| 2026-05-04 00:06 | 34.50532 | -77.95901 | 37142 ft | 472 kts | 349° |
| 2026-05-04 00:07 | 34.57095 | -77.95662 | 37134 ft | 471 kts | 349° |
| 2026-05-04 00:07 | 34.63650 | -77.95425 | 37129 ft | 471 kts | 349° |
| 2026-05-04 00:08 | 34.70206 | -77.95183 | 37118 ft | 469 kts | 349° |
| 2026-05-04 00:08 | 34.76737 | -77.94946 | 37120 ft | 470 kts | 349° |
| 2026-05-04 00:09 | 34.83232 | -77.94707 | 37123 ft | 469 kts | 349° |
| 2026-05-04 00:09 | 34.89781 | -77.94468 | 37118 ft | 468 kts | 350° |
| 2026-05-04 00:10 | 34.96285 | -77.94227 | 37114 ft | 469 kts | 349° |
| 2026-05-04 00:10 | 35.02807 | -77.93989 | 37116 ft | 469 kts | 350° |
| 2026-05-04 00:11 | 35.09347 | -77.93748 | 37122 ft | 468 kts | 350° |
| 2026-05-04 00:11 | 35.15879 | -77.93504 | 37118 ft | 465 kts | 350° |
| 2026-05-04 00:12 | 35.22369 | -77.93264 | 37114 ft | 465 kts | 350° |
| 2026-05-04 00:12 | 35.28828 | -77.93024 | 37114 ft | 465 kts | 350° |
| 2026-05-04 00:13 | 35.35237 | -77.93183 | 37109 ft | 457 kts | 345° |
| 2026-05-04 00:13 | 35.41538 | -77.93702 | 37112 ft | 454 kts | 344° |
| 2026-05-04 00:14 | 35.47865 | -77.94243 | 37101 ft | 455 kts | 344° |
| 2026-05-04 00:14 | 35.54152 | -77.94773 | 37102 ft | 455 kts | 345° |
| 2026-05-04 00:15 | 35.60449 | -77.95294 | 37104 ft | 452 kts | 345° |
| 2026-05-04 00:15 | 35.66714 | -77.95816 | 37097 ft | 450 kts | 345° |
| 2026-05-04 00:16 | 35.72971 | -77.96337 | 37100 ft | 451 kts | 345° |
| 2026-05-04 00:16 | 35.79215 | -77.96859 | 37098 ft | 450 kts | 345° |
| 2026-05-04 00:17 | 35.85481 | -77.97382 | 37099 ft | 451 kts | 345° |
| 2026-05-04 00:17 | 35.91718 | -77.97904 | 37101 ft | 450 kts | 345° |
| 2026-05-04 00:18 | 35.97960 | -77.98426 | 37096 ft | 451 kts | 345° |
| 2026-05-04 00:18 | 36.04229 | -77.98950 | 37085 ft | 448 kts | 345° |
| 2026-05-04 00:19 | 36.10427 | -77.99470 | 37079 ft | 447 kts | 345° |
| 2026-05-04 00:19 | 36.16675 | -77.99998 | 37076 ft | 449 kts | 345° |
| 2026-05-04 00:20 | 36.22880 | -78.00519 | 37084 ft | 447 kts | 345° |
| 2026-05-04 00:20 | 36.29069 | -78.01041 | 37078 ft | 445 kts | 345° |
| 2026-05-04 00:21 | 36.35307 | -78.01294 | 37079 ft | 454 kts | 351° |
| 2026-05-04 00:21 | 36.41643 | -78.00678 | 37077 ft | 463 kts | 358° |
| 2026-05-04 00:22 | 36.48033 | -77.99201 | 37074 ft | 468 kts | 2° |
| 2026-05-04 00:22 | 36.54409 | -77.97506 | 37095 ft | 469 kts | 2° |
| 2026-05-04 00:23 | 36.60758 | -77.95813 | 37085 ft | 467 kts | 2° |
| 2026-05-04 00:23 | 36.67137 | -77.94138 | 37098 ft | 468 kts | 2° |
| 2026-05-04 00:24 | 36.73493 | -77.92468 | 37096 ft | 467 kts | 2° |
| 2026-05-04 00:24 | 36.77651 | -77.91375 | 37095 ft | 467 kts | 2° |
| 2026-05-04 00:25 | 36.84285 | -77.89624 | 37095 ft | 466 kts | 2° |
| 2026-05-04 00:25 | 36.90642 | -77.87946 | 37087 ft | 466 kts | 2° |
| 2026-05-04 00:26 | 36.96965 | -77.86272 | 37080 ft | 465 kts | 2° |
| 2026-05-04 00:26 | 37.03278 | -77.84598 | 37083 ft | 463 kts | 2° |
| 2026-05-04 00:27 | 37.09616 | -77.82916 | 37078 ft | 465 kts | 2° |
| 2026-05-04 00:27 | 37.15959 | -77.81231 | 37081 ft | 464 kts | 2° |
| 2026-05-04 00:28 | 37.22313 | -77.79537 | 37078 ft | 464 kts | 2° |
| 2026-05-04 00:28 | 37.28605 | -77.77858 | 37071 ft | 466 kts | 2° |
| 2026-05-04 00:29 | 37.34963 | -77.76157 | 37075 ft | 465 kts | 1° |
| 2026-05-04 00:29 | 37.41289 | -77.74464 | 37075 ft | 464 kts | 2° |
| 2026-05-04 00:30 | 37.47612 | -77.72491 | 37074 ft | 472 kts | 7° |
| 2026-05-04 00:30 | 37.53819 | -77.69554 | 37077 ft | 482 kts | 15° |
| 2026-05-04 00:31 | 37.59801 | -77.65569 | 37077 ft | 492 kts | 22° |
| 2026-05-04 00:31 | 37.65560 | -77.60902 | 37072 ft | 494 kts | 24° |
| 2026-05-04 00:32 | 37.71289 | -77.56200 | 37074 ft | 493 kts | 24° |
| 2026-05-04 00:32 | 37.77072 | -77.51508 | 37067 ft | 493 kts | 24° |
| 2026-05-04 00:33 | 37.84762 | -77.45261 | 37071 ft | 493 kts | 24° |
| 2026-05-04 00:34 | 37.91456 | -77.39803 | 37065 ft | 493 kts | 24° |
| 2026-05-04 00:34 | 37.97254 | -77.35063 | 37064 ft | 494 kts | 24° |
| 2026-05-04 00:35 | 38.03006 | -77.30361 | 37060 ft | 494 kts | 24° |
| 2026-05-04 00:35 | 38.08786 | -77.25637 | 37042 ft | 494 kts | 24° |
| 2026-05-04 00:36 | 38.14567 | -77.20893 | 37058 ft | 492 kts | 24° |
| 2026-05-04 00:36 | 38.20340 | -77.16146 | 37049 ft | 492 kts | 24° |
| 2026-05-04 00:37 | 38.26083 | -77.11415 | 37048 ft | 491 kts | 24° |
| 2026-05-04 00:37 | 38.28933 | -77.09028 | 37207 ft | 493 kts | 26° |
| 2026-05-04 00:37 | 38.31689 | -77.06500 | 37126 ft | 494 kts | 28° |
| 2026-05-04 00:38 | 38.37188 | -77.01211 | 37071 ft | 493 kts | 29° |
| 2026-05-04 00:38 | 38.42643 | -76.95933 | 37049 ft | 495 kts | 29° |
| 2026-05-04 00:39 | 38.48147 | -76.90609 | 37043 ft | 494 kts | 29° |
| 2026-05-04 00:39 | 38.53587 | -76.85344 | 37035 ft | 492 kts | 29° |
| 2026-05-04 00:40 | 38.59045 | -76.80058 | 37048 ft | 492 kts | 29° |
| 2026-05-04 00:40 | 38.64486 | -76.74773 | 37045 ft | 491 kts | 29° |
| 2026-05-04 00:41 | 38.69937 | -76.69473 | 37041 ft | 492 kts | 29° |
| 2026-05-04 00:41 | 38.75380 | -76.64167 | 37049 ft | 492 kts | 29° |
| 2026-05-04 00:42 | 38.80807 | -76.58873 | 36758 ft | 491 kts | 29° |
| 2026-05-04 00:42 | 38.83522 | -76.56216 | 36540 ft | 488 kts | 29° |
| 2026-05-04 00:42 | 38.86189 | -76.53603 | 36243 ft | 486 kts | 29° |
| 2026-05-04 00:42 | 38.88869 | -76.50974 | 35754 ft | 486 kts | 29° |
| 2026-05-04 00:43 | 38.91573 | -76.48322 | 35141 ft | 489 kts | 28° |
| 2026-05-04 00:43 | 38.94270 | -76.45676 | 34477 ft | 494 kts | 28° |
| 2026-05-04 00:43 | 38.97003 | -76.42994 | 33765 ft | 500 kts | 28° |
| 2026-05-04 00:43 | 38.99790 | -76.40259 | 33016 ft | 505 kts | 28° |
| 2026-05-04 00:44 | 39.02552 | -76.37489 | 32235 ft | 508 kts | 31° |
| 2026-05-04 00:44 | 39.05211 | -76.34537 | 31586 ft | 501 kts | 34° |
| 2026-05-04 00:44 | 39.07740 | -76.31594 | 30952 ft | 484 kts | 34° |
| 2026-05-04 00:44 | 39.10001 | -76.28931 | 30410 ft | 472 kts | 34° |
| 2026-05-04 00:45 | 39.11338 | -76.27354 | 30111 ft | 466 kts | 34° |
| 2026-05-04 00:45 | 39.13679 | -76.24607 | 29630 ft | 458 kts | 34° |
| 2026-05-04 00:45 | 39.16006 | -76.21884 | 29149 ft | 454 kts | 34° |
| 2026-05-04 00:45 | 39.18371 | -76.19126 | 28664 ft | 450 kts | 34° |
| 2026-05-04 00:46 | 39.20673 | -76.16434 | 28191 ft | 446 kts | 34° |
| 2026-05-04 00:46 | 39.22969 | -76.13747 | 27720 ft | 442 kts | 34° |
| 2026-05-04 00:46 | 39.25235 | -76.11093 | 27245 ft | 439 kts | 34° |
| 2026-05-04 00:46 | 39.27492 | -76.08445 | 26839 ft | 432 kts | 34° |
| 2026-05-04 00:47 | 39.29701 | -76.05850 | 26852 ft | 431 kts | 34° |
| 2026-05-04 00:47 | 39.31914 | -76.03254 | 26889 ft | 432 kts | 34° |
| 2026-05-04 00:47 | 39.34144 | -76.00635 | 26924 ft | 432 kts | 34° |
| 2026-05-04 00:47 | 39.36367 | -75.98019 | 26945 ft | 432 kts | 34° |
| 2026-05-04 00:48 | 39.38567 | -75.95425 | 26972 ft | 433 kts | 34° |
| 2026-05-04 00:48 | 39.40796 | -75.92796 | 26989 ft | 432 kts | 34° |
| 2026-05-04 00:48 | 39.42997 | -75.90197 | 27003 ft | 432 kts | 34° |
| 2026-05-04 00:48 | 39.45228 | -75.87560 | 26889 ft | 432 kts | 34° |
| 2026-05-04 00:49 | 39.47417 | -75.84966 | 26285 ft | 428 kts | 34° |
| 2026-05-04 00:49 | 39.49615 | -75.82362 | 25780 ft | 425 kts | 34° |
| 2026-05-04 00:49 | 39.51764 | -75.79816 | 25329 ft | 421 kts | 35° |
| 2026-05-04 00:49 | 39.53909 | -75.77271 | 24855 ft | 417 kts | 35° |
| 2026-05-04 00:50 | 39.56049 | -75.74726 | 24401 ft | 413 kts | 35° |
| 2026-05-04 00:50 | 39.58146 | -75.72238 | 23951 ft | 409 kts | 35° |
| 2026-05-04 00:50 | 39.60238 | -75.69750 | 23478 ft | 405 kts | 35° |
| 2026-05-04 00:50 | 39.62305 | -75.67288 | 23038 ft | 402 kts | 36° |
| 2026-05-04 00:51 | 39.64354 | -75.64847 | 22590 ft | 398 kts | 36° |
| 2026-05-04 00:51 | 39.66374 | -75.62439 | 22126 ft | 395 kts | 36° |
| 2026-05-04 00:51 | 39.68225 | -75.60229 | 21718 ft | 393 kts | 36° |
| 2026-05-04 00:51 | 39.70219 | -75.57838 | 21260 ft | 390 kts | 36° |
| 2026-05-04 00:52 | 39.72188 | -75.55469 | 20802 ft | 387 kts | 36° |
| 2026-05-04 00:52 | 39.74154 | -75.53100 | 20348 ft | 384 kts | 36° |
| 2026-05-04 00:52 | 39.76098 | -75.50758 | 19913 ft | 381 kts | 37° |
| 2026-05-04 00:52 | 39.78014 | -75.48449 | 19463 ft | 378 kts | 37° |
| 2026-05-04 00:53 | 39.79949 | -75.46111 | 19017 ft | 375 kts | 37° |
| 2026-05-04 00:53 | 39.81847 | -75.43818 | 18572 ft | 373 kts | 37° |
| 2026-05-04 00:53 | 39.83731 | -75.41538 | 18128 ft | 370 kts | 37° |
| 2026-05-04 00:53 | 39.85605 | -75.39269 | 17677 ft | 368 kts | 37° |
| 2026-05-04 00:54 | 39.87490 | -75.36984 | 17230 ft | 365 kts | 37° |
| 2026-05-04 00:54 | 39.89325 | -75.34761 | 16795 ft | 363 kts | 38° |
| 2026-05-04 00:54 | 39.91182 | -75.32507 | 16356 ft | 360 kts | 38° |
| 2026-05-04 00:54 | 39.92986 | -75.30315 | 15933 ft | 357 kts | 38° |
| 2026-05-04 00:55 | 39.94802 | -75.28109 | 15507 ft | 355 kts | 38° |
| 2026-05-04 00:55 | 39.96585 | -75.25942 | 15072 ft | 352 kts | 38° |
| 2026-05-04 00:55 | 39.98378 | -75.23761 | 14635 ft | 349 kts | 38° |
| 2026-05-04 00:55 | 40.00144 | -75.21611 | 14202 ft | 347 kts | 38° |
| 2026-05-04 00:56 | 40.01895 | -75.19479 | 13766 ft | 345 kts | 38° |
| 2026-05-04 00:56 | 40.03651 | -75.17339 | 13326 ft | 343 kts | 38° |
| 2026-05-04 00:56 | 40.04816 | -75.15914 | 13032 ft | 341 kts | 38° |
| 2026-05-04 00:56 | 40.07097 | -75.13128 | 12446 ft | 339 kts | 38° |
| 2026-05-04 00:57 | 40.08825 | -75.11018 | 11995 ft | 337 kts | 38° |
| 2026-05-04 00:57 | 40.10522 | -75.08942 | 11548 ft | 334 kts | 38° |
| 2026-05-04 00:57 | 40.12219 | -75.06868 | 11105 ft | 332 kts | 38° |
| 2026-05-04 00:57 | 40.13893 | -75.04816 | 10888 ft | 322 kts | 38° |
| 2026-05-04 00:58 | 40.15488 | -75.02854 | 10870 ft | 312 kts | 38° |
| 2026-05-04 00:58 | 40.17073 | -75.00912 | 10555 ft | 310 kts | 38° |
| 2026-05-04 00:58 | 40.18618 | -74.99017 | 10277 ft | 304 kts | 38° |
| 2026-05-04 00:58 | 40.20147 | -74.97138 | 10069 ft | 295 kts | 38° |
| 2026-05-04 00:59 | 40.21617 | -74.95328 | 9883 ft | 287 kts | 37° |
| 2026-05-04 00:59 | 40.23065 | -74.93549 | 9504 ft | 287 kts | 37° |
| 2026-05-04 00:59 | 40.24512 | -74.91775 | 9129 ft | 286 kts | 37° |
| 2026-05-04 00:59 | 40.25923 | -74.89947 | 8755 ft | 287 kts | 40° |
| 2026-05-04 01:00 | 40.27303 | -74.88030 | 8385 ft | 286 kts | 41° |
| 2026-05-04 01:00 | 40.28655 | -74.86131 | 8026 ft | 286 kts | 41° |
| 2026-05-04 01:00 | 40.29952 | -74.84180 | 7844 ft | 284 kts | 49° |
| 2026-05-04 01:00 | 40.30974 | -74.81949 | 7730 ft | 287 kts | 56° |
| 2026-05-04 01:01 | 40.31895 | -74.79663 | 7608 ft | 286 kts | 57° |
| 2026-05-04 01:01 | 40.32824 | -74.77349 | 7478 ft | 286 kts | 57° |
| 2026-05-04 01:01 | 40.33748 | -74.75062 | 7356 ft | 286 kts | 57° |
| 2026-05-04 01:01 | 40.34695 | -74.72753 | 7246 ft | 285 kts | 56° |
| 2026-05-04 01:02 | 40.35668 | -74.70487 | 7104 ft | 285 kts | 55° |
| 2026-05-04 01:02 | 40.36641 | -74.68252 | 6981 ft | 284 kts | 54° |
| 2026-05-04 01:02 | 40.37624 | -74.66011 | 6868 ft | 283 kts | 54° |
| 2026-05-04 01:02 | 40.38608 | -74.63745 | 6740 ft | 283 kts | 55° |
| 2026-05-04 01:03 | 40.39576 | -74.61482 | 6614 ft | 283 kts | 56° |
| 2026-05-04 01:03 | 40.40530 | -74.59244 | 6484 ft | 282 kts | 56° |
| 2026-05-04 01:03 | 40.41489 | -74.56995 | 6322 ft | 282 kts | 56° |
| 2026-05-04 01:03 | 40.42436 | -74.54769 | 6116 ft | 282 kts | 56° |
| 2026-05-04 01:04 | 40.43394 | -74.52520 | 5830 ft | 281 kts | 56° |
| 2026-05-04 01:04 | 40.44347 | -74.50275 | 5515 ft | 281 kts | 56° |
| 2026-05-04 01:04 | 40.45237 | -74.48179 | 5196 ft | 281 kts | 56° |
| 2026-05-04 01:04 | 40.46194 | -74.45927 | 4859 ft | 281 kts | 56° |
| 2026-05-04 01:05 | 40.47136 | -74.43710 | 4518 ft | 281 kts | 56° |
| 2026-05-04 01:05 | 40.48085 | -74.41435 | 4202 ft | 280 kts | 59° |
| 2026-05-04 01:05 | 40.48867 | -74.39092 | 3967 ft | 276 kts | 66° |
| 2026-05-04 01:05 | 40.49449 | -74.36764 | 3971 ft | 262 kts | 69° |
| 2026-05-04 01:06 | 40.49958 | -74.34561 | 3982 ft | 248 kts | 70° |
| 2026-05-04 01:06 | 40.50450 | -74.32416 | 3994 ft | 241 kts | 69° |
| 2026-05-04 01:06 | 40.50940 | -74.30312 | 4002 ft | 241 kts | 69° |
| 2026-05-04 01:06 | 40.51565 | -74.28292 | 3993 ft | 234 kts | 50° |
| 2026-05-04 01:07 | 40.52702 | -74.26861 | 4002 ft | 224 kts | 24° |
| 2026-05-04 01:07 | 40.54084 | -74.25953 | 4007 ft | 222 kts | 19° |
| 2026-05-04 01:07 | 40.55480 | -74.25121 | 3907 ft | 216 kts | 18° |
| 2026-05-04 01:07 | 40.56829 | -74.24310 | 3694 ft | 213 kts | 19° |
| 2026-05-04 01:08 | 40.58171 | -74.23485 | 3507 ft | 208 kts | 19° |
| 2026-05-04 01:08 | 40.59481 | -74.22668 | 3427 ft | 208 kts | 19° |
| 2026-05-04 01:08 | 40.60780 | -74.21840 | 3401 ft | 204 kts | 22° |
| 2026-05-04 01:08 | 40.61908 | -74.20824 | 3426 ft | 190 kts | 33° |
| 2026-05-04 01:09 | 40.62817 | -74.19612 | 3296 ft | 181 kts | 44° |
| 2026-05-04 01:09 | 40.63504 | -74.18272 | 3148 ft | 173 kts | 55° |
| 2026-05-04 01:09 | 40.63971 | -74.16879 | 3019 ft | 162 kts | 66° |
| 2026-05-04 01:09 | 40.64246 | -74.15454 | 2924 ft | 161 kts | 77° |
| 2026-05-04 01:10 | 40.64379 | -74.13993 | 2757 ft | 161 kts | 81° |
| 2026-05-04 01:10 | 40.64476 | -74.12528 | 2553 ft | 160 kts | 82° |
| 2026-05-04 01:10 | 40.64575 | -74.11063 | 2342 ft | 160 kts | 82° |
| 2026-05-04 01:10 | 40.64747 | -74.09625 | 2127 ft | 157 kts | 66° |
| 2026-05-04 01:11 | 40.65287 | -74.08443 | 1930 ft | 150 kts | 39° |
| 2026-05-04 01:11 | 40.66115 | -74.07675 | 1740 ft | 142 kts | 15° |
| 2026-05-04 01:11 | 40.67044 | -74.07394 | 1561 ft | 134 kts | 354° |
| 2026-05-04 01:11 | 40.67954 | -74.07560 | 1392 ft | 130 kts | 336° |
| 2026-05-04 01:12 | 40.68751 | -74.08112 | 1233 ft | 130 kts | 318° |
| 2026-05-04 01:12 | 40.69359 | -74.08974 | 1067 ft | 130 kts | 301° |
| 2026-05-04 01:12 | 40.69720 | -74.10076 | 895 ft | 131 kts | 283° |
| 2026-05-04 01:12 | 40.69843 | -74.11266 | 717 ft | 131 kts | 276° |
| 2026-05-04 01:13 | 40.69921 | -74.12466 | 537 ft | 131 kts | 275° |
| 2026-05-04 01:13 | 40.69998 | -74.13659 | 361 ft | 130 kts | 275° |
| 2026-05-04 01:13 | 40.70070 | -74.14849 | 193 ft | 130 kts | 275° |
| 2026-05-04 01:13 | 40.70145 | -74.16026 | 34 ft | 128 kts | 275° |
| 2026-05-04 01:14 | 40.70207 | -74.16951 | 26 ft | 59 kts | 275° |
| 2026-05-04 01:14 | 40.70228 | -74.17291 | 26 ft | 15 kts | 269° |
| 2026-05-04 01:14 | 40.70163 | -74.17357 | 26 ft | 11 kts | 185° |
| 2026-05-04 01:14 | 40.70082 | -74.17366 | 26 ft | 12 kts | 185° |
| 2026-05-04 01:15 | 40.69991 | -74.17376 | 26 ft | 13 kts | 185° |
| 2026-05-04 01:15 | 40.69918 | -74.17384 | 26 ft | 6 kts | 185° |
| 2026-05-04 01:15 | 40.69871 | -74.17381 | 26 ft | 9 kts | 153° |
| 2026-05-04 01:15 | 40.69821 | -74.17309 | 26 ft | 8 kts | 134° |
| 2026-05-04 01:16 | 40.69776 | -74.17320 | 26 ft | 5 kts | 230° |
| 2026-05-04 01:16 | 40.69768 | -74.17381 | 26 ft | 7 kts | 275° |
| 2026-05-04 01:16 | 40.69770 | -74.17413 | 26 ft | 0 kts | 276° |
| 2026-05-04 01:16 | 40.69771 | -74.17418 | 26 ft | 0 kts | 276° |